createdAt,value
2023-04-11T00:02:02.844Z,1.70
2023-04-11T00:04:30.648Z,1.60
2023-04-11T00:06:57.915Z,1.30
2023-04-11T00:09:25.087Z,1.27
2023-04-11T00:11:52.576Z,0.90
2023-04-11T00:14:20.131Z,1.30
2023-04-11T00:16:49.783Z,1.40
2023-04-11T00:19:17.273Z,1.60
2023-04-11T00:21:45.212Z,1.15
2023-04-11T00:24:12.519Z,1.00
2023-04-11T00:26:39.696Z,1.38
2023-04-11T00:29:07.315Z,1.25
2023-04-11T00:31:34.726Z,2.00
2023-04-11T00:34:02.073Z,1.67
2023-04-11T00:36:31.935Z,1.67
2023-04-11T00:39:01.211Z,2.15
2023-04-11T00:41:28.464Z,1.77
2023-04-11T00:43:55.709Z,1.60
2023-04-11T00:46:25.235Z,2.05
2023-04-11T00:48:52.552Z,1.63
2023-04-11T00:51:20.453Z,1.67
2023-04-11T00:53:48.182Z,1.85
2023-04-11T00:56:15.615Z,2.10
2023-04-11T00:58:44.243Z,1.77
2023-04-11T01:01:11.545Z,1.80
2023-04-11T01:03:39.979Z,1.92
2023-04-11T01:06:11.343Z,2.40
2023-04-11T01:08:41.086Z,1.90
2023-04-11T01:11:11.109Z,2.23
2023-04-11T01:13:41.402Z,2.13
2023-04-11T01:16:10.211Z,1.95
2023-04-11T01:18:37.681Z,1.77
2023-04-11T01:21:05.349Z,1.98
2023-04-11T01:23:34.281Z,1.90
2023-04-11T01:26:01.623Z,1.92
2023-04-11T01:28:28.990Z,2.22
2023-04-11T01:30:57.801Z,2.40
2023-04-11T01:33:25.269Z,2.88
2023-04-11T01:35:52.776Z,2.50
2023-04-11T01:38:21.566Z,2.78
2023-04-11T01:40:48.988Z,2.92
2023-04-11T01:43:16.454Z,2.60
2023-04-11T01:45:43.878Z,3.38
2023-04-11T01:48:11.341Z,2.60
2023-04-11T01:50:39.184Z,2.88
2023-04-11T01:53:06.659Z,2.88
2023-04-11T01:55:33.934Z,3.00
2023-04-11T01:58:01.076Z,2.97
2023-04-11T02:00:28.521Z,3.13
2023-04-11T02:02:55.998Z,3.45
2023-04-11T02:05:23.743Z,2.92
2023-04-11T02:07:50.977Z,3.00
2023-04-11T02:10:19.116Z,2.75
2023-04-11T02:12:46.521Z,3.25
2023-04-11T02:15:13.814Z,2.60
2023-04-11T02:17:45.520Z,2.47
2023-04-11T02:20:14.675Z,2.47
2023-04-11T02:22:41.990Z,2.05
2023-04-11T02:25:09.439Z,2.50
2023-04-11T02:27:36.957Z,2.22
2023-04-11T02:30:07.599Z,3.10
2023-04-11T02:32:35.880Z,2.08
2023-04-11T02:35:04.984Z,2.55
2023-04-11T02:37:32.275Z,1.73
2023-04-11T02:39:59.634Z,2.38
2023-04-11T02:42:26.913Z,1.63
2023-04-11T02:44:55.701Z,1.40
2023-04-11T02:47:27.499Z,1.40
2023-04-11T02:49:58.533Z,1.98
2023-04-11T02:52:33.505Z,1.75
2023-04-11T02:55:01.021Z,1.38
2023-04-11T02:57:28.500Z,1.42
2023-04-11T02:59:57.034Z,1.20
2023-04-11T03:02:31.402Z,1.50
2023-04-11T03:05:04.382Z,1.50
2023-04-11T03:07:40.792Z,1.48
2023-04-11T03:10:10.325Z,1.60
2023-04-11T03:12:38.202Z,1.77
2023-04-11T03:15:07.580Z,1.77
2023-04-11T03:17:35.002Z,2.00
2023-04-11T03:20:07.167Z,1.55
2023-04-11T03:22:35.113Z,1.45
2023-04-11T03:25:03.092Z,1.60
2023-04-11T03:27:30.593Z,1.35
2023-04-11T03:32:39.354Z,1.45
2023-04-11T03:35:06.857Z,1.63
2023-04-11T03:37:35.061Z,1.40
2023-04-11T03:40:02.340Z,1.98
2023-04-11T03:42:29.840Z,2.25
2023-04-11T03:45:00.360Z,2.00
2023-04-11T03:47:27.589Z,1.95
2023-04-11T03:49:55.444Z,2.28
2023-04-11T03:52:22.951Z,2.38
2023-04-11T03:54:51.321Z,2.88
2023-04-11T03:57:19.648Z,2.03
2023-04-11T03:59:48.000Z,2.45
2023-04-11T04:02:16.315Z,2.67
2023-04-11T04:04:55.812Z,2.10
2023-04-11T04:07:28.194Z,2.38
2023-04-11T04:10:05.049Z,2.13
2023-04-11T04:12:32.966Z,2.17
2023-04-11T04:15:15.945Z,2.30
2023-04-11T04:17:46.409Z,2.55
2023-04-11T04:20:19.792Z,2.72
2023-04-11T04:22:53.191Z,2.45
2023-04-11T04:25:27.901Z,2.53
2023-04-11T04:27:58.143Z,2.30
2023-04-11T04:30:29.101Z,3.30
2023-04-11T04:33:04.498Z,2.88
2023-04-11T04:35:34.167Z,2.80
2023-04-11T04:38:06.665Z,2.72
2023-04-11T04:40:46.337Z,3.45
2023-04-11T04:43:18.749Z,3.20
2023-04-11T04:45:51.924Z,2.85
2023-04-11T04:48:25.781Z,3.80
2023-04-11T04:50:53.756Z,3.15
2023-04-11T04:53:21.408Z,3.83
2023-04-11T04:55:56.570Z,3.65
2023-04-11T04:58:25.446Z,3.08
2023-04-11T05:00:56.154Z,3.20
2023-04-11T05:03:27.658Z,2.88
2023-04-11T05:05:56.787Z,3.17
2023-04-11T05:08:24.715Z,3.45
2023-04-11T05:10:55.364Z,3.15
2023-04-11T05:13:22.942Z,3.40
2023-04-11T05:15:51.196Z,3.78
2023-04-11T05:18:19.139Z,2.90
2023-04-11T05:20:46.458Z,2.83
2023-04-11T05:23:20.071Z,4.10
2023-04-11T05:25:48.401Z,3.50
2023-04-11T05:28:17.147Z,3.10
2023-04-11T05:30:44.408Z,2.72
2023-04-11T05:33:15.100Z,3.08
2023-04-11T05:35:44.236Z,3.53
2023-04-11T05:38:11.629Z,3.25
2023-04-11T05:40:40.301Z,2.60
2023-04-11T05:43:08.608Z,2.25
2023-04-11T05:45:35.873Z,2.30
2023-04-11T05:48:07.874Z,1.98
2023-04-11T05:50:35.958Z,1.67
2023-04-11T05:53:03.426Z,1.65
2023-04-11T05:55:30.705Z,1.55
2023-04-11T05:57:57.904Z,1.25
2023-04-11T06:00:26.181Z,1.67
2023-04-11T06:02:54.922Z,1.67
2023-04-11T06:05:22.415Z,1.60
2023-04-11T06:07:50.155Z,1.70
2023-04-11T06:10:17.405Z,2.28
2023-04-11T06:12:44.761Z,2.30
2023-04-11T06:15:13.807Z,2.13
2023-04-11T06:17:41.205Z,2.38
2023-04-11T06:20:10.289Z,1.88
2023-04-11T06:22:37.882Z,1.77
2023-04-11T06:25:05.309Z,1.60
2023-04-11T06:27:32.929Z,1.23
2023-04-11T06:30:00.160Z,1.52
2023-04-11T06:32:27.992Z,1.30
2023-04-11T06:34:55.443Z,1.58
2023-04-11T06:37:23.650Z,1.52
2023-04-11T06:39:50.881Z,1.58
2023-04-11T06:42:18.366Z,1.30
2023-04-11T06:44:46.746Z,1.23
2023-04-11T06:47:14.002Z,1.40
2023-04-11T06:49:41.611Z,1.60
2023-04-11T06:52:08.792Z,1.52
2023-04-11T06:54:36.213Z,1.27
2023-04-11T06:57:03.684Z,2.08
2023-04-11T06:59:31.141Z,1.50
2023-04-11T07:01:59.480Z,1.65
2023-04-11T07:04:27.256Z,1.55
2023-04-11T07:06:54.538Z,1.80
2023-04-11T07:09:21.854Z,1.50
2023-04-11T07:11:49.708Z,1.73
2023-04-11T07:14:17.135Z,1.33
2023-04-11T07:16:44.455Z,1.60
2023-04-11T07:19:11.780Z,1.50
2023-04-11T07:21:39.212Z,2.10
2023-04-11T07:24:06.905Z,1.55
2023-04-11T07:26:36.027Z,1.30
2023-04-11T07:29:03.326Z,1.77
2023-04-11T07:31:31.184Z,1.60
2023-04-11T07:33:58.774Z,1.50
2023-04-11T07:36:26.730Z,1.80
2023-04-11T07:38:54.110Z,1.67
2023-04-11T07:41:21.472Z,2.72
2023-04-11T07:43:49.033Z,1.63
2023-04-11T07:46:16.651Z,1.80
2023-04-11T07:48:43.926Z,2.15
2023-04-11T07:51:11.406Z,2.40
2023-04-11T07:53:38.668Z,2.50
2023-04-11T07:56:06.200Z,2.60
2023-04-11T07:58:33.564Z,3.28
2023-04-11T08:01:02.676Z,4.15
2023-04-11T08:03:30.447Z,2.67
2023-04-11T08:05:57.895Z,3.30
2023-04-11T08:08:25.977Z,2.92
2023-04-11T08:10:53.343Z,3.05
2023-04-11T08:13:20.688Z,2.35
2023-04-11T08:15:48.020Z,2.55
2023-04-11T08:18:16.658Z,2.90
2023-04-11T08:20:43.956Z,2.47
2023-04-11T08:23:11.397Z,2.90
2023-04-11T08:25:39.163Z,2.75
2023-04-11T08:28:06.702Z,2.92
2023-04-11T08:30:34.097Z,2.30
2023-04-11T08:33:01.733Z,2.95
2023-04-11T08:35:44.393Z,3.17
2023-04-11T08:38:37.429Z,2.00
2023-04-11T08:41:04.930Z,3.00
2023-04-11T08:43:36.253Z,2.58
2023-04-11T08:46:09.868Z,1.95
2023-04-11T08:48:38.304Z,1.75
2023-04-11T08:51:06.102Z,1.65
2023-04-11T08:53:36.347Z,1.10
2023-04-11T08:56:04.234Z,1.80
2023-04-11T08:58:33.065Z,1.65
2023-04-11T09:01:26.066Z,1.30
2023-04-11T09:03:53.390Z,1.20
2023-04-11T09:06:32.661Z,1.88
2023-04-11T09:09:01.144Z,2.75
2023-04-11T09:11:28.530Z,1.90
2023-04-11T09:14:10.348Z,1.77
2023-04-11T09:16:37.763Z,2.40
2023-04-11T09:19:23.470Z,2.10
2023-04-11T09:21:51.388Z,1.50
2023-04-11T09:24:18.792Z,1.30
2023-04-11T09:26:46.170Z,1.23
2023-04-11T09:29:36.273Z,1.48
2023-04-11T09:32:03.667Z,1.38
2023-04-11T09:34:31.292Z,1.80
2023-04-11T09:36:59.440Z,2.60
2023-04-11T09:39:29.633Z,2.33
2023-04-11T09:41:57.385Z,2.53
2023-04-11T09:44:38.547Z,2.58
2023-04-11T09:47:05.995Z,1.48
2023-04-11T09:49:35.070Z,2.05
2023-04-11T09:52:03.176Z,2.25
2023-04-11T09:54:31.927Z,1.95
2023-04-11T09:56:59.582Z,1.95
2023-04-11T09:59:27.809Z,2.83
2023-04-11T10:01:56.884Z,2.17
2023-04-11T10:04:24.286Z,1.48
2023-04-11T10:06:54.503Z,1.52
2023-04-11T10:09:23.373Z,2.20
2023-04-11T10:11:50.746Z,2.88
2023-04-11T10:14:37.047Z,3.35
2023-04-11T10:17:12.988Z,2.45
2023-04-11T10:19:40.483Z,2.22
2023-04-11T10:22:07.874Z,2.10
2023-04-11T10:24:35.331Z,2.55
2023-04-11T10:27:04.631Z,1.70
2023-04-11T10:29:36.576Z,1.90
2023-04-11T10:32:15.914Z,1.65
2023-04-11T10:34:55.728Z,1.23
2023-04-11T10:37:33.942Z,1.53
2023-04-11T10:40:11.503Z,1.67
2023-04-11T10:42:43.307Z,1.27
2023-04-11T10:45:27.474Z,1.80
2023-04-11T10:48:07.579Z,1.40
2023-04-11T10:50:40.900Z,1.88
2023-04-11T10:53:11.369Z,1.88
2023-04-11T10:55:51.084Z,1.80
2023-04-11T10:58:19.964Z,2.50
2023-04-11T11:00:48.142Z,2.75
2023-04-11T11:03:17.227Z,1.45
2023-04-11T11:05:45.355Z,1.63
2023-04-11T11:08:12.844Z,1.55
2023-04-11T11:10:46.625Z,2.17
2023-04-11T11:13:17.073Z,2.15
2023-04-11T11:15:49.099Z,2.08
2023-04-11T11:18:18.343Z,2.95
2023-04-11T11:20:46.913Z,2.50
2023-04-11T11:23:14.182Z,2.13
2023-04-11T11:25:52.941Z,1.60
2023-04-11T11:28:20.327Z,2.03
2023-04-11T11:30:56.322Z,1.30
2023-04-11T11:33:26.683Z,1.65
2023-04-11T11:36:04.642Z,2.13
2023-04-11T11:38:32.077Z,1.38
2023-04-11T11:40:59.637Z,1.58
2023-04-11T11:43:27.716Z,1.75
2023-04-11T11:46:15.026Z,2.17
2023-04-11T11:48:44.092Z,2.55
2023-04-11T11:51:11.442Z,1.60
2023-04-11T11:53:39.050Z,2.30
2023-04-11T11:56:13.842Z,2.22
2023-04-11T11:58:45.139Z,2.25
2023-04-11T12:01:16.220Z,2.17
2023-04-11T12:03:44.306Z,2.40
2023-04-11T12:06:12.128Z,3.22
2023-04-11T12:08:49.979Z,2.58
2023-04-11T12:11:18.526Z,2.58
2023-04-11T12:13:46.334Z,2.10
2023-04-11T12:16:14.751Z,2.05
2023-04-11T12:18:42.811Z,2.10
2023-04-11T12:21:10.030Z,2.30
2023-04-11T12:23:37.274Z,2.80
2023-04-11T12:26:04.961Z,1.40
2023-04-11T12:28:32.423Z,1.75
2023-04-11T12:30:59.671Z,2.15
2023-04-11T12:33:26.899Z,1.92
2023-04-11T12:35:54.154Z,1.33
2023-04-11T12:38:21.654Z,1.83
2023-04-11T12:40:49.013Z,3.13
2023-04-11T12:43:16.592Z,2.45
2023-04-11T12:45:43.888Z,1.88
2023-04-11T12:48:11.350Z,2.17
2023-04-11T12:50:38.645Z,1.92
2023-04-11T12:53:06.253Z,2.38
2023-04-11T12:55:36.647Z,2.45
2023-04-11T12:58:04.064Z,2.13
2023-04-11T13:00:31.386Z,2.92
2023-04-11T13:02:59.060Z,2.38
2023-04-11T13:05:27.221Z,3.15
2023-04-11T13:07:54.446Z,2.03
2023-04-11T13:10:22.018Z,2.42
2023-04-11T13:12:53.199Z,2.25
2023-04-11T13:15:20.624Z,2.40
2023-04-11T13:17:47.905Z,3.13
2023-04-11T13:20:15.183Z,2.20
2023-04-11T13:22:43.097Z,2.10
2023-04-11T13:25:11.064Z,1.88
2023-04-11T13:27:39.660Z,2.33
2023-04-11T13:30:08.908Z,2.40
2023-04-11T13:32:36.829Z,2.67
2023-04-11T13:35:04.343Z,1.92
2023-04-11T13:37:31.774Z,1.80
2023-04-11T13:39:59.114Z,2.35
2023-04-11T13:42:26.504Z,2.63
2023-04-11T13:44:53.799Z,1.92
2023-04-11T13:47:21.066Z,2.45
2023-04-11T13:49:48.493Z,2.25
2023-04-11T13:52:15.779Z,2.22
2023-04-11T13:54:42.998Z,2.67
2023-04-11T13:57:10.194Z,3.10
2023-04-11T13:59:37.617Z,2.25
2023-04-11T14:02:04.936Z,2.67
2023-04-11T14:04:32.727Z,2.40
2023-04-11T14:07:00.209Z,2.30
2023-04-11T14:09:27.505Z,2.97
2023-04-11T14:11:54.808Z,2.10
2023-04-11T14:14:22.084Z,2.55
2023-04-11T14:16:50.398Z,2.53
2023-04-11T14:19:17.815Z,2.00
2023-04-11T14:21:45.053Z,1.85
2023-04-11T14:24:12.472Z,1.67
2023-04-11T14:26:39.746Z,1.67
2023-04-11T14:29:07.321Z,1.80
2023-04-11T14:31:35.644Z,2.75
2023-04-11T14:34:03.089Z,2.50
2023-04-11T14:36:32.026Z,2.45
2023-04-11T14:38:59.383Z,2.47
2023-04-11T14:41:26.674Z,2.03
2023-04-11T14:43:54.071Z,1.70
2023-04-11T14:46:21.374Z,2.97
2023-04-11T14:48:49.103Z,1.70
2023-04-11T14:51:16.612Z,2.45
2023-04-11T14:53:43.808Z,2.58
2023-04-11T14:56:11.117Z,3.15
2023-04-11T14:58:38.351Z,3.08
2023-04-11T15:01:05.764Z,2.55
2023-04-11T15:03:33.865Z,2.25
2023-04-11T15:06:01.285Z,2.30
2023-04-11T15:08:28.557Z,2.90
2023-04-11T15:10:56.016Z,2.35
2023-04-11T15:13:23.399Z,2.42
2023-04-11T15:15:51.932Z,2.38
2023-04-11T15:18:19.277Z,2.45
2023-04-11T15:20:46.515Z,1.88
2023-04-11T15:23:13.830Z,2.50
2023-04-11T15:25:41.162Z,2.10
2023-04-11T15:28:09.146Z,2.45
2023-04-11T15:30:46.294Z,2.15
2023-04-11T15:33:13.951Z,2.85
2023-04-11T15:35:44.543Z,1.73
2023-04-11T15:38:13.901Z,2.00
2023-04-11T15:40:41.156Z,1.92
2023-04-11T15:43:11.370Z,2.00
2023-04-11T15:45:40.015Z,2.58
2023-04-11T15:48:07.514Z,2.67
2023-04-11T15:50:34.854Z,2.55
2023-04-11T15:53:02.175Z,2.90
2023-04-11T15:55:29.543Z,2.03
2023-04-11T15:57:57.261Z,2.15
2023-04-11T16:00:25.516Z,2.33
2023-04-11T16:02:53.118Z,2.58
2023-04-11T16:05:21.144Z,2.08
2023-04-11T16:07:48.603Z,2.42
2023-04-11T16:10:15.894Z,2.33
2023-04-11T16:12:43.277Z,2.35
2023-04-11T16:15:10.879Z,2.47
2023-04-11T16:17:38.224Z,2.33
2023-04-11T16:20:09.277Z,2.53
2023-04-11T16:22:39.620Z,2.55
2023-04-11T16:25:07.594Z,2.30
2023-04-11T16:27:35.180Z,2.70
2023-04-11T16:30:05.781Z,2.22
2023-04-11T16:32:33.268Z,2.58
2023-04-11T16:35:00.953Z,2.97
2023-04-11T16:37:29.106Z,2.70
2023-04-11T16:39:57.007Z,2.30
2023-04-11T16:42:24.611Z,1.85
2023-04-11T16:44:52.245Z,2.60
2023-04-11T16:47:20.627Z,2.45
2023-04-11T16:49:48.037Z,2.42
2023-04-11T16:52:15.439Z,2.20
2023-04-11T16:54:42.861Z,2.33
2023-04-11T16:57:10.512Z,2.15
2023-04-11T16:59:39.095Z,2.65
2023-04-11T17:02:07.055Z,1.90
2023-04-11T17:04:34.546Z,2.97
2023-04-11T17:07:01.920Z,2.35
2023-04-11T17:09:29.559Z,2.63
2023-04-11T17:11:59.415Z,2.70
2023-04-11T17:14:27.238Z,2.10
2023-04-11T17:16:56.258Z,2.28
2023-04-11T17:19:24.478Z,2.15
2023-04-11T17:21:53.178Z,1.90
2023-04-11T17:24:20.832Z,1.83
2023-04-11T17:26:48.110Z,2.50
2023-04-11T17:29:15.676Z,2.05
2023-04-11T17:31:43.423Z,2.70
2023-04-11T17:34:10.733Z,1.98
2023-04-11T17:36:42.752Z,2.58
2023-04-11T17:39:17.077Z,2.55
2023-04-11T17:41:45.616Z,2.20
2023-04-11T17:44:13.496Z,2.10
2023-04-11T17:46:41.290Z,2.40
2023-04-11T17:49:08.823Z,1.70
2023-04-11T17:51:38.869Z,2.35
2023-04-11T17:54:10.301Z,2.28
2023-04-11T17:56:37.980Z,2.45
2023-04-11T17:59:05.473Z,2.22
2023-04-11T18:01:32.940Z,2.95
2023-04-11T18:04:02.019Z,1.77
2023-04-11T18:06:29.937Z,2.63
2023-04-11T18:08:57.833Z,2.05
2023-04-11T18:11:25.084Z,2.55
2023-04-11T18:13:52.349Z,2.08
2023-04-11T18:16:19.816Z,2.35
2023-04-11T18:18:48.221Z,2.70
2023-04-11T18:21:16.686Z,2.50
2023-04-11T18:23:44.028Z,2.92
2023-04-11T18:26:11.721Z,2.78
2023-04-11T18:28:39.015Z,2.13
2023-04-11T18:31:06.897Z,2.20
2023-04-11T18:33:36.674Z,2.22
2023-04-11T18:36:05.765Z,2.83
2023-04-11T18:38:33.026Z,2.08
2023-04-11T18:41:03.889Z,2.70
2023-04-11T18:43:32.446Z,3.42
2023-04-11T18:46:01.615Z,1.83
2023-04-11T18:48:28.934Z,2.58
2023-04-11T18:51:00.556Z,2.20
2023-04-11T18:53:29.922Z,2.20
2023-04-11T18:55:57.896Z,1.92
2023-04-11T18:58:26.904Z,2.30
2023-04-11T19:00:56.747Z,2.30
2023-04-11T19:03:24.331Z,2.90
2023-04-11T19:05:52.039Z,3.03
2023-04-11T19:08:19.464Z,2.90
2023-04-11T19:10:46.725Z,3.03
2023-04-11T19:13:13.941Z,2.67
2023-04-11T19:15:42.122Z,2.38
2023-04-11T19:18:10.724Z,2.67
2023-04-11T19:20:39.112Z,2.10
2023-04-11T19:23:06.526Z,2.55
2023-04-11T19:25:34.784Z,2.42
2023-04-11T19:28:02.202Z,2.83
2023-04-11T19:30:29.411Z,3.03
2023-04-11T19:32:57.538Z,2.75
2023-04-11T19:35:25.361Z,2.47
2023-04-11T19:37:53.599Z,1.95
2023-04-11T19:40:23.367Z,2.45
2023-04-11T19:42:51.589Z,2.65
2023-04-11T19:45:19.178Z,2.13
2023-04-11T19:47:48.078Z,3.05
2023-04-11T19:50:15.371Z,2.72
2023-04-11T19:52:43.473Z,2.38
2023-04-11T19:55:12.344Z,2.33
2023-04-11T19:57:40.808Z,2.85
2023-04-11T20:00:13.679Z,2.40
2023-04-11T20:02:47.155Z,2.80
2023-04-11T20:05:16.281Z,2.88
2023-04-11T20:07:44.445Z,2.00
2023-04-11T20:10:12.986Z,1.90
2023-04-11T20:12:40.525Z,2.17
2023-04-11T20:15:08.612Z,2.20
2023-04-11T20:17:36.038Z,1.90
2023-04-11T20:20:06.277Z,1.73
2023-04-11T20:22:33.615Z,2.30
2023-04-11T20:25:01.021Z,2.50
2023-04-11T20:27:28.714Z,2.28
2023-04-11T20:29:56.873Z,2.28
2023-04-11T20:32:24.425Z,3.20
2023-04-11T20:34:51.988Z,2.35
2023-04-11T20:37:19.606Z,1.98
2023-04-11T20:39:47.337Z,2.20
2023-04-11T20:42:15.733Z,2.00
2023-04-11T20:44:43.245Z,2.38
2023-04-11T20:47:10.555Z,2.33
2023-04-11T20:49:38.337Z,1.70
2023-04-11T20:52:06.532Z,2.47
2023-04-11T20:54:34.573Z,2.95
2023-04-11T20:57:02.368Z,2.55
2023-04-11T20:59:34.575Z,2.80
2023-04-11T21:02:02.554Z,2.63
2023-04-11T21:04:30.485Z,2.13
2023-04-11T21:07:01.907Z,2.13
2023-04-11T21:09:29.294Z,2.00
2023-04-11T21:11:58.122Z,2.00
2023-04-11T21:14:25.796Z,2.15
2023-04-11T21:16:53.049Z,2.30
2023-04-11T21:19:20.793Z,2.60
2023-04-11T21:21:47.973Z,2.90
2023-04-11T21:24:15.585Z,3.85
2023-04-11T21:26:42.974Z,3.60
2023-04-11T21:29:12.006Z,4.00
2023-04-11T21:31:39.415Z,4.32
2023-04-11T21:34:06.729Z,4.55
2023-04-11T21:36:33.987Z,4.65
2023-04-11T21:39:01.484Z,4.25
2023-04-11T21:41:29.371Z,3.50
2023-04-11T21:43:57.211Z,3.58
2023-04-11T21:46:24.563Z,4.22
2023-04-11T21:48:51.826Z,3.35
2023-04-11T21:51:19.148Z,3.17
2023-04-11T21:53:46.551Z,2.75
2023-04-11T21:56:13.787Z,2.63
2023-04-11T21:58:41.185Z,2.50
2023-04-11T22:01:11.178Z,1.98
2023-04-11T22:03:42.310Z,2.28
2023-04-11T22:06:10.450Z,2.30
2023-04-11T22:08:39.249Z,2.40
2023-04-11T22:11:14.185Z,2.17
2023-04-11T22:13:46.273Z,2.33
2023-04-11T22:16:14.151Z,2.13
2023-04-11T22:18:47.478Z,1.67
2023-04-11T22:21:19.822Z,2.00
2023-04-11T22:23:54.671Z,2.00
2023-04-11T22:26:29.467Z,2.42
2023-04-11T22:28:58.343Z,2.50
2023-04-11T22:31:30.463Z,2.70
2023-04-11T22:33:58.160Z,3.03
2023-04-11T22:36:25.544Z,1.92
2023-04-11T22:38:53.114Z,2.28
2023-04-11T22:41:21.969Z,2.30
2023-04-11T22:43:49.166Z,2.28
2023-04-11T22:46:17.732Z,2.08
2023-04-11T22:48:46.635Z,2.50
2023-04-11T22:51:14.199Z,1.83
2023-04-11T22:53:42.484Z,2.50
2023-04-11T22:56:12.869Z,2.60
2023-04-11T22:58:40.326Z,2.33
2023-04-11T23:01:12.506Z,2.50
2023-04-11T23:03:40.543Z,2.40
2023-04-11T23:06:08.338Z,2.97
2023-04-11T23:08:35.934Z,2.05
2023-04-11T23:11:03.228Z,2.92
2023-04-11T23:13:30.573Z,2.38
2023-04-11T23:16:00.161Z,1.80
2023-04-11T23:18:27.447Z,1.92
2023-04-11T23:20:55.210Z,1.80
2023-04-11T23:23:22.763Z,1.90
2023-04-11T23:25:50.227Z,1.90
2023-04-11T23:28:17.579Z,1.80
2023-04-11T23:30:45.695Z,2.05
2023-04-11T23:33:13.257Z,1.95
2023-04-11T23:35:40.507Z,2.20
2023-04-11T23:38:07.841Z,1.90
2023-04-11T23:40:35.083Z,1.75
2023-04-11T23:43:02.341Z,1.90
2023-04-11T23:45:29.577Z,1.73
2023-04-11T23:47:57.474Z,1.83
2023-04-11T23:50:25.091Z,2.00
2023-04-11T23:52:53.592Z,1.85
2023-04-11T23:55:21.849Z,2.55
2023-04-11T23:57:49.658Z,2.70
